Dover Hill, Indiana
Current Conditions -  °F | °C
As of 8:55 AM on Friday 19 Dec 2014 (Local Time) from KDCY Reporting Station
Clear Clear  
Wind Chill: 28°   Ceiling: Unl
Heat Index: 28°   Visibility: 10mi
Dew Point: 22°   Wind: 3mph
Humidity: 76%   Direction: 60°ENE
Pressure: 30.33"   Gusts: NA
Location:  38.6262°N, 86.7615°W
Report Text: KDCY 191455Z AUTO 06003KT 10SM CLR M02/M06 A3033 RMK AO2 T10201058
Loading
Personal Weather Stations






























Interactive Weather Map New forecast layout! Learn more

10-Day Weather Forecast

Advertisements
Track Severe Weather on mobile